createdAt,value
2023-01-30T00:03:02.117Z,74.16
2023-01-30T00:08:06.473Z,74.89
2023-01-30T00:13:09.422Z,74.33
2023-01-30T00:18:12.480Z,74.98
2023-01-30T00:23:16.771Z,73.97
2023-01-30T00:28:19.798Z,73.76
2023-01-30T00:33:24.419Z,74.35
2023-01-30T00:38:29.530Z,74.05
2023-01-30T00:43:49.798Z,73.74
2023-01-30T00:48:52.686Z,74.67
2023-01-30T00:53:57.007Z,73.96
2023-01-30T00:59:01.070Z,73.88
2023-01-30T01:04:04.007Z,74.65
2023-01-30T01:09:10.830Z,75.03
2023-01-30T01:14:13.835Z,74.79
2023-01-30T01:19:17.514Z,75.60
2023-01-30T01:24:23.389Z,75.82
2023-01-30T01:29:27.153Z,76.91
2023-01-30T01:34:30.293Z,77.35
2023-01-30T01:39:48.425Z,77.92
2023-01-30T01:45:15.388Z,77.96
2023-01-30T01:50:22.621Z,78.50
2023-01-30T01:55:28.208Z,79.22
2023-01-30T02:00:33.065Z,79.56
2023-01-30T02:05:40.852Z,81.11
2023-01-30T02:10:52.910Z,81.81
2023-01-30T02:15:57.110Z,82.34
2023-01-30T02:21:30.465Z,82.90
2023-01-30T02:27:09.208Z,82.48
2023-01-30T02:32:22.434Z,83.05
2023-01-30T02:37:41.597Z,82.97
2023-01-30T02:42:52.524Z,82.89
2023-01-30T02:48:03.485Z,83.05
2023-01-30T02:53:07.481Z,83.04
2023-01-30T02:58:14.699Z,83.30
2023-01-30T03:03:34.890Z,83.26
2023-01-30T03:08:45.365Z,83.40
2023-01-30T03:13:54.092Z,82.93
2023-01-30T03:19:00.871Z,83.59
2023-01-30T03:24:03.853Z,83.60
2023-01-30T03:29:07.114Z,83.30
2023-01-30T03:34:11.449Z,83.39
2023-01-30T03:39:18.715Z,83.33
2023-01-30T03:44:22.232Z,83.22
2023-01-30T03:49:26.866Z,83.13
2023-01-30T03:54:31.329Z,82.78
2023-01-30T03:59:35.196Z,82.91
2023-01-30T04:04:44.527Z,82.36
2023-01-30T04:09:47.908Z,81.91
2023-01-30T04:14:52.318Z,81.54
2023-01-30T04:20:08.196Z,81.75
2023-01-30T04:25:13.144Z,81.79
2023-01-30T04:30:16.526Z,81.57
2023-01-30T04:35:21.732Z,81.52
2023-01-30T04:40:24.673Z,81.99
2023-01-30T04:45:29.386Z,81.94
2023-01-30T04:50:34.595Z,81.76
2023-01-30T04:55:37.886Z,81.92
2023-01-30T05:00:41.109Z,81.63
2023-01-30T05:05:47.794Z,81.77
2023-01-30T05:10:50.677Z,81.67
2023-01-30T05:15:53.573Z,80.86
2023-01-30T05:21:05.771Z,81.59
2023-01-30T05:26:09.048Z,80.96
2023-01-30T05:31:14.577Z,81.14
2023-01-30T05:36:20.473Z,81.67
2023-01-30T05:41:23.397Z,82.61
2023-01-30T05:46:26.341Z,82.40
2023-01-30T05:51:31.084Z,83.35
2023-01-30T05:56:34.237Z,83.45
2023-01-30T06:01:37.203Z,83.26
2023-01-30T06:06:41.492Z,83.06
2023-01-30T06:11:44.416Z,82.73
2023-01-30T06:16:47.334Z,82.96
2023-01-30T06:21:51.595Z,82.75
2023-01-30T06:26:54.537Z,83.37
2023-01-30T06:31:57.444Z,82.82
2023-01-30T06:37:01.717Z,83.85
2023-01-30T06:42:05.043Z,84.93
2023-01-30T06:47:07.933Z,85.01
2023-01-30T06:52:12.380Z,85.38
2023-01-30T06:57:15.341Z,85.92
2023-01-30T07:02:18.485Z,87.77
2023-01-30T07:07:22.755Z,89.13
2023-01-30T07:12:26.382Z,90.63
2023-01-30T07:17:29.301Z,90.58
2023-01-30T07:22:33.553Z,90.58
2023-01-30T07:27:36.457Z,89.19
2023-01-30T07:32:39.287Z,88.83
2023-01-30T07:37:46.393Z,88.42
2023-01-30T07:42:57.983Z,87.99
2023-01-30T07:48:00.897Z,87.72
2023-01-30T07:53:05.881Z,88.72
2023-01-30T07:58:09.100Z,88.01
2023-01-30T08:03:13.854Z,88.93
2023-01-30T08:08:18.183Z,89.65
2023-01-30T08:13:21.045Z,89.96
2023-01-30T08:18:23.883Z,90.13
2023-01-30T08:23:28.178Z,90.56
2023-01-30T08:28:31.192Z,91.58
2023-01-30T08:33:34.070Z,90.64
2023-01-30T08:38:38.314Z,90.52
2023-01-30T08:43:41.911Z,89.60
2023-01-30T08:48:49.872Z,89.33
2023-01-30T08:53:54.607Z,88.98
2023-01-30T08:58:57.504Z,87.31
2023-01-30T09:04:00.471Z,87.08
2023-01-30T09:09:04.869Z,87.26
2023-01-30T09:14:07.787Z,87.38
2023-01-30T09:19:10.667Z,87.55
2023-01-30T09:24:14.952Z,86.28
2023-01-30T09:29:17.953Z,86.40
2023-01-30T09:34:20.912Z,85.48
2023-01-30T09:39:25.153Z,85.92
2023-01-30T09:44:59.924Z,86.13
2023-01-30T09:50:21.676Z,85.64
2023-01-30T09:55:29.223Z,84.42
2023-01-30T10:00:36.527Z,84.60
2023-01-30T10:05:45.885Z,83.57
2023-01-30T10:11:08.824Z,81.63
2023-01-30T10:16:20.127Z,80.78
2023-01-30T10:21:38.121Z,80.78
2023-01-30T10:26:43.740Z,79.55
2023-01-30T10:31:50.433Z,79.46
2023-01-30T10:36:57.224Z,78.76
2023-01-30T10:42:11.789Z,78.68
2023-01-30T10:47:47.523Z,79.73
2023-01-30T10:52:57.182Z,79.63
2023-01-30T10:58:08.715Z,80.73
2023-01-30T11:03:21.381Z,81.07
2023-01-30T11:08:26.615Z,80.84
2023-01-30T11:13:32.553Z,81.70
2023-01-30T11:24:17.060Z,81.90
2023-01-30T11:29:30.734Z,82.83
2023-01-30T11:34:33.943Z,83.28
2023-01-30T11:39:36.845Z,82.96
2023-01-30T11:44:43.049Z,83.57
2023-01-30T11:49:59.903Z,83.92
2023-01-30T11:55:09.005Z,83.19
2023-01-30T12:00:20.550Z,83.11
2023-01-30T12:05:32.129Z,83.35
2023-01-30T12:10:42.857Z,83.16
2023-01-30T12:15:52.831Z,83.48
2023-01-30T12:20:59.577Z,82.95
2023-01-30T12:26:08.689Z,82.50
2023-01-30T12:31:19.686Z,83.07
2023-01-30T12:36:32.075Z,82.80
2023-01-30T12:41:49.531Z,82.82
2023-01-30T12:47:15.656Z,82.04
2023-01-30T12:52:48.251Z,83.10
2023-01-30T12:57:58.366Z,82.20
2023-01-30T13:03:20.428Z,82.23
2023-01-30T13:08:38.547Z,81.93
2023-01-30T13:13:48.560Z,81.89
2023-01-30T13:18:58.794Z,81.79
2023-01-30T13:24:15.585Z,80.99
2023-01-30T13:29:27.320Z,81.65
2023-01-30T13:34:35.032Z,81.03
2023-01-30T13:39:43.504Z,81.17
2023-01-30T13:44:49.070Z,80.77
2023-01-30T13:50:17.804Z,79.77
2023-01-30T13:55:32.708Z,80.34
2023-01-30T14:00:36.752Z,80.11
2023-01-30T14:06:11.447Z,80.20
2023-01-30T14:11:47.898Z,80.19
2023-01-30T14:16:53.415Z,80.32
2023-01-30T14:21:59.560Z,80.24
2023-01-30T14:27:23.885Z,80.11
2023-01-30T14:32:53.561Z,80.85
2023-01-30T14:38:12.956Z,80.80
2023-01-30T14:43:53.577Z,81.05
2023-01-30T14:49:05.036Z,81.04
2023-01-30T14:54:25.473Z,79.96
2023-01-30T14:59:33.436Z,79.52
2023-01-30T15:04:44.737Z,79.71
2023-01-30T15:09:55.178Z,80.23
2023-01-30T15:15:07.118Z,81.14
2023-01-30T15:20:21.885Z,81.99
2023-01-30T15:25:37.622Z,82.33
2023-01-30T15:31:03.782Z,81.90
2023-01-30T15:36:20.265Z,82.69
2023-01-30T15:41:25.099Z,85.17
2023-01-30T15:46:38.238Z,88.21
2023-01-30T15:51:41.160Z,89.62
2023-01-30T15:56:48.829Z,89.84
2023-01-30T16:02:00.622Z,89.48
2023-01-30T16:07:15.903Z,89.01
2023-01-30T16:12:27.657Z,89.20
2023-01-30T16:17:32.640Z,89.25
2023-01-30T16:22:36.129Z,89.01
2023-01-30T16:27:40.923Z,88.97
2023-01-30T16:32:44.164Z,89.14
2023-01-30T16:37:47.109Z,88.20
2023-01-30T16:42:59.774Z,86.75
2023-01-30T16:48:25.397Z,85.17
2023-01-30T16:53:30.516Z,85.24
2023-01-30T16:58:36.685Z,85.11
2023-01-30T17:03:42.344Z,85.25
2023-01-30T17:08:52.171Z,85.85
2023-01-30T17:14:11.784Z,88.77
2023-01-30T17:19:15.105Z,88.46
2023-01-30T17:24:21.658Z,88.46
2023-01-30T17:29:41.601Z,87.67
2023-01-30T17:34:45.511Z,85.82
2023-01-30T17:39:48.539Z,85.63
2023-01-30T17:44:54.024Z,86.29
2023-01-30T17:49:56.943Z,87.20
2023-01-30T17:54:59.880Z,88.02
2023-01-30T18:00:04.709Z,87.46
2023-01-30T18:05:27.855Z,87.32
2023-01-30T18:10:30.869Z,86.36
2023-01-30T18:15:35.202Z,86.47
2023-01-30T18:20:38.101Z,87.44
2023-01-30T18:25:40.993Z,89.39
2023-01-30T18:30:45.355Z,89.90
2023-01-30T18:35:48.359Z,89.70
2023-01-30T18:40:51.224Z,89.08
2023-01-30T18:46:05.080Z,88.78
2023-01-30T18:51:09.017Z,87.22
2023-01-30T18:56:14.377Z,86.97
2023-01-30T19:01:20.761Z,86.31
2023-01-30T19:06:24.416Z,86.23
2023-01-30T19:11:45.146Z,85.80
2023-01-30T19:16:51.241Z,86.51
2023-01-30T19:21:54.176Z,85.54
2023-01-30T19:26:57.177Z,85.59
2023-01-30T19:32:01.584Z,84.61
2023-01-30T19:37:04.837Z,84.30
2023-01-30T19:42:07.786Z,84.27
2023-01-30T19:47:12.022Z,84.47
2023-01-30T19:52:14.909Z,84.96
2023-01-30T19:57:17.806Z,84.08
2023-01-30T20:02:22.085Z,84.25
2023-01-30T20:07:24.998Z,84.49
2023-01-30T20:12:27.944Z,83.82
2023-01-30T20:17:33.880Z,83.76
2023-01-30T20:22:36.787Z,83.73
2023-01-30T20:27:39.973Z,83.72
2023-01-30T20:32:44.249Z,82.35
2023-01-30T20:37:47.127Z,83.03
2023-01-30T20:42:49.989Z,83.49
2023-01-30T20:47:54.208Z,83.50
2023-01-30T20:52:57.073Z,82.90
2023-01-30T20:57:59.938Z,83.43
2023-01-30T21:03:04.293Z,83.13
2023-01-30T21:08:07.284Z,84.37
2023-01-30T21:13:10.653Z,83.71
2023-01-30T21:18:14.934Z,83.21
2023-01-30T21:23:17.822Z,83.40
2023-01-30T21:28:20.751Z,83.38
2023-01-30T21:33:25.079Z,83.80
2023-01-30T21:38:45.563Z,82.99
2023-01-30T21:43:49.120Z,85.62
2023-01-30T21:48:53.506Z,86.89
2023-01-30T21:53:57.283Z,88.30
2023-01-30T21:59:01.240Z,89.72
2023-01-30T22:04:07.174Z,90.20
2023-01-30T22:09:12.708Z,89.31
2023-01-30T22:14:15.572Z,89.39
2023-01-30T22:19:19.803Z,89.20
2023-01-30T22:24:22.725Z,88.66
2023-01-30T22:29:25.692Z,87.40
2023-01-30T22:34:29.912Z,85.31
2023-01-30T22:39:32.787Z,85.63
2023-01-30T22:44:35.942Z,85.03
2023-01-30T22:49:40.194Z,85.25
2023-01-30T22:54:43.119Z,84.75
2023-01-30T22:59:45.978Z,84.26
2023-01-30T23:04:50.518Z,83.89
2023-01-30T23:09:53.361Z,83.65
2023-01-30T23:14:56.232Z,83.06
2023-01-30T23:20:00.457Z,82.57
2023-01-30T23:25:03.613Z,82.16
2023-01-30T23:30:07.740Z,82.20
2023-01-30T23:35:11.989Z,82.73
2023-01-30T23:40:14.946Z,83.05
2023-01-30T23:45:18.385Z,81.49
2023-01-30T23:50:22.818Z,81.74
2023-01-30T23:55:25.646Z,81.24
